Time;durP1;ratioP1;P1;durP2;ratioP2;P2;SDS_P1;SDS_P2;PMS_P1;PMS_P2;Temp;Humidity;BMP_temperature;BMP_pressure;BME280_temperature;BME280_humidity;BME280_pressure;Samples;Min_cycle;Max_cycle;Signal;HPM_P1;HPM_P2
2023/03/10 00:01:22;;;;;;;19.93;12.90;;;;;;;;;;5089323;28;20194;-78
2023/03/10 00:03:48;;;;;;;15.43;11.60;;;;;;;;;;5107390;28;20228;-78
2023/03/10 00:06:15;;;;;;;19.87;12.53;;;;;;;;;;5090455;28;20180;-79
2023/03/10 00:08:41;;;;;;;17.17;12.67;;;;;;;;;;5088170;28;20288;-78
2023/03/10 00:11:09;;;;;;;18.60;12.73;;;;;;;;;;5090882;28;20243;-79
2023/03/10 00:13:35;;;;;;;17.47;12.77;;;;;;;;;;5089501;28;20201;-78
2023/03/10 00:16:01;;;;;;;17.63;12.00;;;;;;;;;;5102127;28;20183;-78
2023/03/10 00:18:27;;;;;;;18.10;12.70;;;;;;;;;;5106120;28;20697;-78
2023/03/10 00:20:54;;;;;;;19.80;13.20;;;;;;;;;;5104472;28;20183;-78
2023/03/10 00:23:20;;;;;;;19.73;12.57;;;;;;;;;;5087395;28;20203;-78
2023/03/10 00:25:56;;;;;;;18.87;12.57;;;;;;;;;;5108176;28;20186;-78
2023/03/10 00:28:23;;;;;;;21.87;14.50;;;;;;;;;;5087748;28;20203;-78
2023/03/10 00:31:06;;;;;;;18.97;13.27;;;;;;;;;;5104998;28;20206;-78
2023/03/10 00:33:33;;;;;;;20.07;13.63;;;;;;;;;;5104389;28;20644;-78
2023/03/10 00:36:08;;;;;;;18.33;13.73;;;;;;;;;;5091415;28;20190;-78
2023/03/10 00:38:35;;;;;;;20.30;13.67;;;;;;;;;;5087203;28;20175;-78
2023/03/10 00:41:02;;;;;;;20.93;14.67;;;;;;;;;;5095444;28;20252;-78
2023/03/10 00:43:28;;;;;;;18.97;13.17;;;;;;;;;;5087582;28;20240;-78
2023/03/10 00:45:55;;;;;;;20.87;15.20;;;;;;;;;;5107037;28;20175;-78
2023/03/10 00:48:21;;;;;;;18.93;14.67;;;;;;;;;;5108480;28;20207;-78
2023/03/10 00:50:47;;;;;;;18.50;13.63;;;;;;;;;;5074041;28;20581;-78
2023/03/10 00:53:13;;;;;;;20.00;14.97;;;;;;;;;;5089784;28;20653;-78
2023/03/10 00:55:39;;;;;;;18.53;13.97;;;;;;;;;;5106664;28;20269;-78
2023/03/10 00:58:05;;;;;;;22.97;15.60;;;;;;;;;;5107485;28;20547;-78
2023/03/10 01:00:31;;;;;;;21.27;14.23;;;;;;;;;;5105486;28;20187;-78
2023/03/10 01:02:58;;;;;;;21.43;15.53;;;;;;;;;;5090772;28;20187;-78
2023/03/10 01:05:24;;;;;;;25.10;16.37;;;;;;;;;;5111342;28;20178;-78
2023/03/10 01:07:49;;;;;;;21.67;16.03;;;;;;;;;;5092092;28;20208;-78
2023/03/10 01:10:17;;;;;;;25.13;16.57;;;;;;;;;;5092638;28;20192;-78
2023/03/10 01:12:43;;;;;;;21.83;16.57;;;;;;;;;;5088285;28;20187;-79
2023/03/10 01:15:11;;;;;;;26.37;17.47;;;;;;;;;;5109544;28;20225;-78
2023/03/10 01:17:37;;;;;;;25.60;17.40;;;;;;;;;;5110700;28;20226;-78
2023/03/10 01:20:07;;;;;;;25.50;17.13;;;;;;;;;;5108414;28;20625;-78
2023/03/10 01:22:33;;;;;;;20.47;15.67;;;;;;;;;;5089082;28;20626;-78
2023/03/10 01:24:59;;;;;;;25.43;17.60;;;;;;;;;;5091979;28;20179;-78
2023/03/10 01:27:25;;;;;;;22.57;17.60;;;;;;;;;;5107862;28;20323;-78
2023/03/10 01:29:51;;;;;;;25.23;19.10;;;;;;;;;;5094435;28;20589;-79
2023/03/10 01:32:17;;;;;;;27.90;19.27;;;;;;;;;;5107137;28;20193;-78
2023/03/10 01:34:43;;;;;;;26.50;18.80;;;;;;;;;;5108430;28;20185;-78
2023/03/10 01:37:09;;;;;;;26.97;18.00;;;;;;;;;;5087091;28;20203;-78
2023/03/10 01:39:36;;;;;;;28.57;20.63;;;;;;;;;;5098138;28;20248;-78
2023/03/10 01:42:02;;;;;;;28.93;20.83;;;;;;;;;;5112041;28;20685;-78
2023/03/10 01:44:28;;;;;;;26.17;20.20;;;;;;;;;;5095903;28;20176;-78
2023/03/10 01:46:55;;;;;;;31.23;21.80;;;;;;;;;;5094150;28;20321;-78
2023/03/10 01:49:21;;;;;;;29.07;20.13;;;;;;;;;;5095461;28;20183;-78
2023/03/10 01:51:49;;;;;;;29.83;21.30;;;;;;;;;;5095601;28;20244;-78
2023/03/10 01:54:18;;;;;;;34.33;22.50;;;;;;;;;;5093534;28;20187;-78
2023/03/10 01:56:44;;;;;;;31.17;22.80;;;;;;;;;;5114233;28;20182;-79
2023/03/10 01:59:10;;;;;;;31.27;22.63;;;;;;;;;;5094683;28;20268;-78
2023/03/10 02:01:37;;;;;;;30.50;22.80;;;;;;;;;;5093032;28;20183;-78
2023/03/10 02:04:05;;;;;;;32.70;24.40;;;;;;;;;;5092022;28;20184;-78
2023/03/10 02:06:32;;;;;;;35.30;24.10;;;;;;;;;;5092741;28;20188;-78
2023/03/10 02:08:59;;;;;;;34.20;24.17;;;;;;;;;;5112632;28;20665;-78
2023/03/10 02:11:25;;;;;;;35.97;24.10;;;;;;;;;;5107196;28;20191;-79
2023/03/10 02:13:51;;;;;;;35.10;23.90;;;;;;;;;;5105428;28;20264;-79
2023/03/10 02:16:17;;;;;;;32.80;23.37;;;;;;;;;;5102594;28;20189;-79
2023/03/10 02:18:44;;;;;;;34.40;23.07;;;;;;;;;;5075268;28;20218;-79
2023/03/10 02:21:18;;;;;;;31.03;22.67;;;;;;;;;;5093287;28;20180;-79
2023/03/10 02:24:04;;;;;;;34.27;23.83;;;;;;;;;;5107770;28;20705;-78
2023/03/10 02:27:00;;;;;;;35.53;23.10;;;;;;;;;;5109325;28;20262;-78
2023/03/10 02:29:30;;;;;;;36.60;24.27;;;;;;;;;;5028794;28;20900;-78
2023/03/10 02:31:56;;;;;;;31.60;23.77;;;;;;;;;;5027974;28;20253;-79
2023/03/10 02:34:23;;;;;;;30.80;21.30;;;;;;;;;;5008780;28;20199;-78
2023/03/10 02:36:49;;;;;;;34.13;23.83;;;;;;;;;;5016323;28;20197;-78
2023/03/10 02:39:15;;;;;;;31.63;23.43;;;;;;;;;;5011583;28;20935;-78
2023/03/10 02:41:42;;;;;;;33.17;23.40;;;;;;;;;;5024789;28;20201;-78
2023/03/10 02:44:11;;;;;;;34.10;22.73;;;;;;;;;;5019612;28;20208;-78
2023/03/10 02:46:37;;;;;;;36.97;24.50;;;;;;;;;;5013975;28;20640;-79
2023/03/10 02:49:05;;;;;;;32.60;23.33;;;;;;;;;;5027190;28;20218;-79
2023/03/10 02:51:33;;;;;;;32.70;23.53;;;;;;;;;;5011966;28;20236;-78
2023/03/10 02:53:59;;;;;;;34.03;23.93;;;;;;;;;;5013756;28;20274;-78
2023/03/10 02:59:28;;;;;;;35.33;24.87;;;;;;;;;;5019772;28;20264;-78
2023/03/10 03:01:54;;;;;;;30.27;22.83;;;;;;;;;;5010781;28;20637;-78
2023/03/10 03:04:20;;;;;;;34.70;22.67;;;;;;;;;;5029746;28;20224;-78
2023/03/10 03:06:46;;;;;;;33.63;22.80;;;;;;;;;;5094966;28;20204;-79
2023/03/10 03:09:12;;;;;;;34.70;23.73;;;;;;;;;;5091410;28;20207;-78
2023/03/10 03:11:38;;;;;;;33.53;23.47;;;;;;;;;;5094180;28;20194;-78
2023/03/10 03:14:04;;;;;;;32.90;23.80;;;;;;;;;;5104468;28;20259;-78
2023/03/10 03:16:30;;;;;;;35.37;24.77;;;;;;;;;;5092600;28;20183;-78
2023/03/10 03:18:56;;;;;;;37.57;23.70;;;;;;;;;;5100794;28;20179;-78
2023/03/10 03:21:22;;;;;;;31.67;22.80;;;;;;;;;;5092794;28;20176;-78
2023/03/10 03:23:49;;;;;;;33.43;23.77;;;;;;;;;;5111338;28;20206;-79
2023/03/10 03:26:20;;;;;;;32.60;24.13;;;;;;;;;;5076427;28;20711;-78
2023/03/10 03:28:46;;;;;;;32.93;24.53;;;;;;;;;;5075314;28;20203;-78
2023/03/10 03:31:13;;;;;;;34.23;24.03;;;;;;;;;;5102790;28;20552;-78
2023/03/10 03:33:39;;;;;;;31.53;22.90;;;;;;;;;;5093237;28;20713;-78
2023/03/10 03:36:05;;;;;;;32.60;24.20;;;;;;;;;;5090111;28;20188;-78
2023/03/10 03:38:31;;;;;;;33.43;24.60;;;;;;;;;;5104317;28;20184;-78
2023/03/10 03:40:57;;;;;;;35.13;24.60;;;;;;;;;;5104201;28;20241;-78
2023/03/10 03:43:26;;;;;;;34.20;24.83;;;;;;;;;;5093189;28;20644;-78
2023/03/10 03:45:52;;;;;;;34.50;25.63;;;;;;;;;;5110110;28;20247;-78
2023/03/10 03:48:18;;;;;;;37.33;25.60;;;;;;;;;;5090670;28;20212;-78
2023/03/10 03:50:44;;;;;;;35.43;26.17;;;;;;;;;;5090318;28;20287;-78
2023/03/10 03:53:10;;;;;;;35.33;26.13;;;;;;;;;;5089765;28;20678;-78
2023/03/10 03:55:36;;;;;;;38.40;26.30;;;;;;;;;;5093569;28;20188;-78
2023/03/10 03:58:02;;;;;;;35.57;23.93;;;;;;;;;;5099566;28;20251;-78
2023/03/10 04:00:28;;;;;;;35.13;25.47;;;;;;;;;;5107780;28;20176;-78
2023/03/10 04:02:54;;;;;;;34.77;26.23;;;;;;;;;;5089695;28;20184;-78
2023/03/10 04:05:20;;;;;;;33.20;25.03;;;;;;;;;;5093540;28;20697;-78
2023/03/10 04:07:48;;;;;;;37.23;26.27;;;;;;;;;;5090746;28;20298;-78
2023/03/10 04:10:15;;;;;;;33.23;24.80;;;;;;;;;;5092874;28;20352;-78
2023/03/10 04:12:41;;;;;;;34.83;25.20;;;;;;;;;;5103208;28;20191;-78
2023/03/10 04:15:07;;;;;;;38.80;26.47;;;;;;;;;;5080853;28;20183;-78
2023/03/10 04:17:34;;;;;;;35.63;25.70;;;;;;;;;;5077853;28;20322;-78
2023/03/10 04:20:00;;;;;;;36.10;26.93;;;;;;;;;;5094892;28;20184;-78
2023/03/10 04:22:26;;;;;;;39.40;28.70;;;;;;;;;;5100349;28;20244;-78
2023/03/10 04:24:52;;;;;;;37.23;26.67;;;;;;;;;;5089073;28;20192;-78
2023/03/10 04:27:19;;;;;;;35.13;26.00;;;;;;;;;;5074407;28;20683;-78
2023/03/10 04:29:45;;;;;;;34.73;25.20;;;;;;;;;;5092244;28;20196;-78
2023/03/10 04:32:11;;;;;;;38.57;28.93;;;;;;;;;;5090359;28;20191;-78
2023/03/10 04:34:36;;;;;;;40.47;28.87;;;;;;;;;;5092087;28;20178;-78
2023/03/10 04:37:02;;;;;;;37.67;28.03;;;;;;;;;;5109453;28;20237;-78
2023/03/10 04:39:29;;;;;;;38.23;26.93;;;;;;;;;;5092475;28;20555;-79
2023/03/10 04:41:55;;;;;;;40.10;28.20;;;;;;;;;;5089399;28;20303;-78
2023/03/10 04:44:21;;;;;;;38.10;28.07;;;;;;;;;;5092729;28;20644;-78
2023/03/10 04:46:46;;;;;;;41.10;27.87;;;;;;;;;;5090639;28;20229;-78
2023/03/10 04:49:14;;;;;;;38.90;27.70;;;;;;;;;;5110188;28;20196;-78
2023/03/10 04:51:40;;;;;;;41.57;29.17;;;;;;;;;;5092176;28;20191;-78
2023/03/10 04:54:06;;;;;;;39.97;27.83;;;;;;;;;;5091778;28;20644;-79
2023/03/10 04:56:32;;;;;;;40.13;28.97;;;;;;;;;;5092668;28;20176;-78
2023/03/10 04:58:58;;;;;;;43.83;30.40;;;;;;;;;;5086165;28;20180;-78
2023/03/10 05:01:24;;;;;;;47.00;32.23;;;;;;;;;;5106157;28;20220;-79
2023/03/10 05:03:50;;;;;;;46.77;31.03;;;;;;;;;;5109283;28;20197;-78
2023/03/10 05:06:18;;;;;;;41.23;29.57;;;;;;;;;;5096421;28;20183;-78
2023/03/10 05:08:44;;;;;;;40.83;29.97;;;;;;;;;;5112479;28;20256;-78
2023/03/10 05:11:10;;;;;;;44.20;30.77;;;;;;;;;;5111540;28;20191;-78
2023/03/10 05:13:36;;;;;;;44.13;29.87;;;;;;;;;;5114522;28;20175;-78
2023/03/10 05:16:02;;;;;;;47.97;31.87;;;;;;;;;;5112177;28;20187;-78
2023/03/10 05:18:28;;;;;;;48.83;31.07;;;;;;;;;;5096259;28;20226;-78
2023/03/10 05:20:55;;;;;;;46.70;30.97;;;;;;;;;;5093148;28;20776;-78
2023/03/10 05:23:22;;;;;;;46.17;32.20;;;;;;;;;;5082430;28;20187;-78
2023/03/10 05:25:48;;;;;;;53.07;33.60;;;;;;;;;;5095010;28;20258;-78
2023/03/10 05:28:14;;;;;;;48.03;32.77;;;;;;;;;;5095645;28;20302;-78
2023/03/10 05:30:40;;;;;;;51.37;33.53;;;;;;;;;;5111443;28;20654;-78
2023/03/10 05:33:06;;;;;;;47.17;32.07;;;;;;;;;;5096081;28;20201;-79
2023/03/10 05:35:32;;;;;;;44.53;32.43;;;;;;;;;;5095874;28;20237;-78
2023/03/10 05:37:58;;;;;;;51.80;33.83;;;;;;;;;;5111849;28;20192;-78
2023/03/10 05:40:24;;;;;;;50.33;34.03;;;;;;;;;;5114591;28;20241;-78
2023/03/10 05:42:50;;;;;;;46.60;32.70;;;;;;;;;;5106411;28;20279;-79
2023/03/10 05:45:17;;;;;;;45.00;31.03;;;;;;;;;;5090558;28;20266;-78
2023/03/10 05:47:45;;;;;;;43.00;31.60;;;;;;;;;;5112466;28;20203;-78
2023/03/10 05:50:13;;;;;;;51.30;32.97;;;;;;;;;;5104211;28;20192;-78
2023/03/10 05:52:39;;;;;;;49.03;33.83;;;;;;;;;;5114274;28;20171;-78
2023/03/10 05:55:05;;;;;;;46.80;31.70;;;;;;;;;;5113435;28;20172;-78
2023/03/10 05:57:31;;;;;;;43.73;31.73;;;;;;;;;;5110600;28;20270;-78
2023/03/10 05:59:57;;;;;;;44.77;30.33;;;;;;;;;;5087743;28;20721;-78
2023/03/10 06:02:23;;;;;;;46.97;32.10;;;;;;;;;;5099145;28;20216;-78
2023/03/10 06:04:49;;;;;;;44.27;30.23;;;;;;;;;;5112990;28;20210;-78
2023/03/10 06:07:15;;;;;;;44.50;30.97;;;;;;;;;;5111918;28;20179;-78
2023/03/10 06:09:41;;;;;;;44.43;30.93;;;;;;;;;;5095003;28;20184;-78
2023/03/10 06:12:07;;;;;;;47.20;32.47;;;;;;;;;;5111660;28;20184;-78
2023/03/10 06:14:33;;;;;;;43.73;30.83;;;;;;;;;;5111099;28;20211;-78
2023/03/10 06:16:59;;;;;;;45.23;30.80;;;;;;;;;;5110910;28;20259;-78
2023/03/10 06:19:26;;;;;;;42.70;30.47;;;;;;;;;;5113222;28;20262;-78
2023/03/10 06:21:52;;;;;;;47.33;32.47;;;;;;;;;;5107677;28;20660;-78
2023/03/10 06:24:18;;;;;;;46.87;31.80;;;;;;;;;;5110730;28;20219;-78
2023/03/10 06:26:44;;;;;;;43.23;30.90;;;;;;;;;;5111796;28;20278;-79
2023/03/10 06:29:10;;;;;;;45.53;31.43;;;;;;;;;;5110118;28;20283;-78
2023/03/10 06:31:36;;;;;;;48.67;31.97;;;;;;;;;;5096219;28;20737;-79
2023/03/10 06:34:02;;;;;;;47.77;31.93;;;;;;;;;;5110010;28;20266;-78
2023/03/10 06:36:30;;;;;;;46.13;31.57;;;;;;;;;;5110855;28;20570;-78
2023/03/10 06:38:56;;;;;;;52.47;34.30;;;;;;;;;;5106135;28;20526;-79
2023/03/10 06:41:22;;;;;;;46.57;33.07;;;;;;;;;;5084052;28;20317;-78
2023/03/10 06:43:48;;;;;;;52.77;34.27;;;;;;;;;;5105468;28;20168;-78
2023/03/10 06:46:14;;;;;;;50.77;33.40;;;;;;;;;;5082657;28;20187;-78
2023/03/10 06:48:41;;;;;;;52.13;33.57;;;;;;;;;;5087314;28;20584;-78
2023/03/10 06:51:08;;;;;;;52.37;34.93;;;;;;;;;;5109692;28;20262;-78
2023/03/10 06:53:35;;;;;;;55.07;35.03;;;;;;;;;;5094795;28;20224;-78
2023/03/10 06:56:04;;;;;;;58.90;37.83;;;;;;;;;;5077127;28;20196;-78
2023/03/10 06:58:31;;;;;;;53.30;34.97;;;;;;;;;;5091179;28;20182;-78
2023/03/10 07:00:58;;;;;;;53.43;36.23;;;;;;;;;;5108960;28;20188;-78
2023/03/10 07:03:25;;;;;;;56.00;36.90;;;;;;;;;;5110792;28;20227;-78
2023/03/10 07:05:51;;;;;;;52.40;37.23;;;;;;;;;;5094058;28;20199;-79
2023/03/10 07:08:17;;;;;;;54.60;38.23;;;;;;;;;;5106217;28;20290;-79
2023/03/10 07:10:43;;;;;;;62.57;37.33;;;;;;;;;;5094811;28;20207;-79
2023/03/10 07:13:12;;;;;;;61.97;40.20;;;;;;;;;;5093736;28;20168;-79
2023/03/10 07:15:38;;;;;;;55.53;38.13;;;;;;;;;;5085712;28;20202;-79
2023/03/10 07:18:04;;;;;;;62.43;40.43;;;;;;;;;;5107573;28;20231;-80
2023/03/10 07:20:31;;;;;;;54.77;37.60;;;;;;;;;;5107979;28;20180;-79
2023/03/10 07:22:56;;;;;;;55.10;37.60;;;;;;;;;;5109540;28;20245;-79
2023/03/10 07:25:23;;;;;;;60.20;38.83;;;;;;;;;;5111039;28;20628;-79
2023/03/10 07:27:49;;;;;;;61.70;39.83;;;;;;;;;;5109484;28;20612;-79
2023/03/10 07:30:16;;;;;;;59.03;39.30;;;;;;;;;;5108641;28;20197;-80
2023/03/10 07:32:42;;;;;;;58.80;38.93;;;;;;;;;;5094018;28;20203;-79
2023/03/10 07:35:08;;;;;;;66.13;43.87;;;;;;;;;;5110086;28;20618;-79
2023/03/10 07:37:37;;;;;;;59.63;40.57;;;;;;;;;;5094010;28;20710;-80
2023/03/10 07:40:03;;;;;;;55.80;37.87;;;;;;;;;;5092912;28;20551;-80
2023/03/10 07:42:29;;;;;;;56.93;37.87;;;;;;;;;;5109579;28;20554;-80
2023/03/10 07:44:55;;;;;;;60.17;37.67;;;;;;;;;;5094416;28;20274;-80
2023/03/10 07:47:21;;;;;;;53.67;38.00;;;;;;;;;;5092253;28;20737;-80
2023/03/10 07:49:47;;;;;;;54.37;36.57;;;;;;;;;;5094290;28;20172;-79
2023/03/10 07:52:17;;;;;;;56.03;35.80;;;;;;;;;;5106882;28;21858;-79
2023/03/10 07:54:43;;;;;;;52.87;35.60;;;;;;;;;;5090744;28;20195;-79
2023/03/10 07:57:10;;;;;;;52.13;36.20;;;;;;;;;;5090331;28;20190;-80
2023/03/10 07:59:36;;;;;;;51.07;35.73;;;;;;;;;;5109503;28;20552;-80
2023/03/10 08:02:02;;;;;;;51.37;35.17;;;;;;;;;;5092638;28;20259;-80
2023/03/10 08:04:28;;;;;;;51.67;36.10;;;;;;;;;;5089593;28;20587;-80
2023/03/10 08:06:54;;;;;;;51.93;36.60;;;;;;;;;;5090341;28;20219;-80
2023/03/10 08:09:20;;;;;;;49.93;34.37;;;;;;;;;;5108131;28;20206;-80
2023/03/10 08:11:46;;;;;;;49.73;36.07;;;;;;;;;;5093484;28;20183;-80
2023/03/10 08:14:12;;;;;;;54.00;37.27;;;;;;;;;;5087048;28;20666;-80
2023/03/10 08:16:38;;;;;;;60.53;41.00;;;;;;;;;;5090137;28;20184;-80
2023/03/10 08:19:06;;;;;;;58.30;36.83;;;;;;;;;;5089618;28;20184;-81
2023/03/10 08:21:32;;;;;;;55.67;39.23;;;;;;;;;;5105350;28;20176;-80
2023/03/10 08:23:58;;;;;;;54.83;36.27;;;;;;;;;;5092777;28;20525;-80
2023/03/10 08:26:24;;;;;;;51.97;35.17;;;;;;;;;;5092577;28;20191;-79
2023/03/10 08:28:50;;;;;;;53.73;35.73;;;;;;;;;;5111570;28;20798;-80
2023/03/10 08:31:18;;;;;;;48.47;34.93;;;;;;;;;;5091939;28;20274;-80
2023/03/10 08:33:44;;;;;;;46.17;32.83;;;;;;;;;;5090677;28;20176;-80
2023/03/10 08:36:12;;;;;;;48.37;33.77;;;;;;;;;;5107969;28;20191;-80
2023/03/10 08:38:38;;;;;;;50.60;35.13;;;;;;;;;;5092493;28;20248;-81
2023/03/10 08:41:11;;;;;;;48.67;34.17;;;;;;;;;;5092762;28;20180;-80
2023/03/10 08:43:38;;;;;;;48.23;32.53;;;;;;;;;;5111371;28;20168;-80
2023/03/10 08:46:04;;;;;;;55.77;36.33;;;;;;;;;;5093470;28;20279;-80
2023/03/10 08:48:30;;;;;;;55.57;35.83;;;;;;;;;;5093136;28;20195;-80
2023/03/10 08:50:56;;;;;;;49.53;36.67;;;;;;;;;;5093070;28;20236;-80
2023/03/10 08:53:23;;;;;;;54.87;33.97;;;;;;;;;;5107639;28;20170;-80
2023/03/10 08:55:49;;;;;;;47.53;31.93;;;;;;;;;;5112883;28;20632;-80
2023/03/10 08:58:15;;;;;;;44.07;30.47;;;;;;;;;;5107275;28;20191;-80
2023/03/10 09:00:41;;;;;;;47.23;33.60;;;;;;;;;;5093380;28;20768;-79
2023/03/10 09:03:09;;;;;;;47.93;33.13;;;;;;;;;;5092081;28;20581;-80
2023/03/10 09:05:35;;;;;;;46.00;32.07;;;;;;;;;;5092092;28;20648;-80
2023/03/10 09:08:01;;;;;;;54.60;37.73;;;;;;;;;;5109095;28;20218;-80
2023/03/10 09:10:28;;;;;;;47.90;33.47;;;;;;;;;;5109087;28;20229;-80
2023/03/10 09:12:54;;;;;;;51.53;34.97;;;;;;;;;;5110150;28;20175;-79
2023/03/10 09:15:20;;;;;;;48.13;33.20;;;;;;;;;;5092262;28;20168;-80
2023/03/10 09:17:46;;;;;;;50.03;34.37;;;;;;;;;;5092749;28;20222;-80
2023/03/10 09:20:14;;;;;;;43.80;32.00;;;;;;;;;;5088531;28;20221;-81
2023/03/10 09:22:40;;;;;;;45.97;32.67;;;;;;;;;;5089101;28;20706;-80
2023/03/10 09:25:06;;;;;;;47.80;32.67;;;;;;;;;;5091641;28;20182;-82
2023/03/10 09:27:32;;;;;;;46.80;32.50;;;;;;;;;;5092558;28;20292;-81
2023/03/10 09:29:58;;;;;;;49.63;34.13;;;;;;;;;;5108615;28;20236;-81
2023/03/10 09:32:26;;;;;;;50.73;35.30;;;;;;;;;;5091848;28;20184;-80
2023/03/10 09:34:53;;;;;;;47.60;31.43;;;;;;;;;;5089270;28;20203;-81
2023/03/10 09:37:20;;;;;;;47.43;33.40;;;;;;;;;;5090236;28;20198;-81
2023/03/10 09:39:46;;;;;;;56.97;39.90;;;;;;;;;;5089748;28;20206;-80
2023/03/10 09:42:19;;;;;;;51.33;36.40;;;;;;;;;;5091959;28;20182;-80
2023/03/10 09:45:04;;;;;;;47.70;34.60;;;;;;;;;;5091687;28;20211;-80
2023/03/10 09:47:32;;;;;;;57.63;38.53;;;;;;;;;;5088741;28;20197;-80
2023/03/10 09:50:02;;;;;;;57.43;39.37;;;;;;;;;;5094442;28;20187;-80
2023/03/10 09:52:34;;;;;;;53.40;37.73;;;;;;;;;;5093986;28;20167;-80
2023/03/10 09:55:10;;;;;;;58.37;36.23;;;;;;;;;;5085662;28;20190;-80
2023/03/10 09:57:37;;;;;;;54.40;36.10;;;;;;;;;;5084032;28;20176;-80
2023/03/10 10:00:10;;;;;;;53.67;35.90;;;;;;;;;;5105565;28;20188;-80
2023/03/10 10:02:40;;;;;;;57.17;35.90;;;;;;;;;;5108699;28;20657;-78
2023/03/10 10:05:11;;;;;;;49.80;32.10;;;;;;;;;;5088822;28;20276;-79
2023/03/10 10:07:43;;;;;;;48.77;32.83;;;;;;;;;;5092664;28;20619;-79
2023/03/10 10:10:15;;;;;;;53.07;35.80;;;;;;;;;;5109567;28;20616;-79
2023/03/10 10:12:43;;;;;;;48.77;32.87;;;;;;;;;;5095656;28;20267;-79
2023/03/10 10:15:21;;;;;;;51.13;34.27;;;;;;;;;;5094805;28;20680;-79
2023/03/10 10:17:50;;;;;;;55.63;37.60;;;;;;;;;;5093336;28;20220;-79
2023/03/10 10:20:20;;;;;;;56.93;37.93;;;;;;;;;;5094779;28;20194;-79
2023/03/10 10:22:46;;;;;;;55.83;36.77;;;;;;;;;;5095515;28;20180;-79
2023/03/10 10:25:12;;;;;;;48.60;33.67;;;;;;;;;;5094873;28;20195;-79
2023/03/10 10:27:39;;;;;;;58.33;38.80;;;;;;;;;;5095365;28;20208;-79
2023/03/10 10:30:25;;;;;;;52.03;35.53;;;;;;;;;;5110567;28;20706;-79
2023/03/10 10:33:02;;;;;;;54.43;36.10;;;;;;;;;;5111053;28;20271;-79
2023/03/10 10:35:29;;;;;;;53.73;37.70;;;;;;;;;;5093233;28;20190;-80
2023/03/10 10:37:59;;;;;;;51.80;37.20;;;;;;;;;;5095964;28;20271;-80
2023/03/10 10:40:26;;;;;;;76.57;55.67;;;;;;;;;;5110714;28;20210;-80
2023/03/10 10:42:55;;;;;;;58.23;43.97;;;;;;;;;;5111934;28;20176;-80
2023/03/10 10:45:39;;;;;;;61.50;42.30;;;;;;;;;;5094684;28;20278;-79
2023/03/10 10:48:05;;;;;;;59.23;39.03;;;;;;;;;;5093987;28;20211;-79
2023/03/10 10:50:32;;;;;;;42.97;31.97;;;;;;;;;;5110527;28;20209;-79
2023/03/10 10:53:15;;;;;;;44.13;30.40;;;;;;;;;;5110038;28;20773;-79
2023/03/10 10:55:43;;;;;;;44.87;30.27;;;;;;;;;;5112579;28;20172;-79
2023/03/10 10:58:29;;;;;;;37.83;28.10;;;;;;;;;;5094390;28;20190;-79
2023/03/10 11:00:57;;;;;;;43.13;30.40;;;;;;;;;;5109066;28;20183;-80
2023/03/10 11:03:32;;;;;;;40.07;28.73;;;;;;;;;;5109348;28;20263;-79
2023/03/10 11:05:59;;;;;;;36.47;26.47;;;;;;;;;;5111937;28;20312;-79
2023/03/10 11:08:31;;;;;;;39.67;27.57;;;;;;;;;;5093087;28;20218;-79
2023/03/10 11:11:16;;;;;;;35.77;26.47;;;;;;;;;;5114271;28;20641;-79
2023/03/10 11:14:04;;;;;;;34.13;24.43;;;;;;;;;;5096183;28;20179;-79
2023/03/10 11:16:30;;;;;;;32.70;24.20;;;;;;;;;;5110768;28;20172;-79
2023/03/10 11:19:19;;;;;;;31.03;23.53;;;;;;;;;;5091298;28;20248;-79
2023/03/10 11:21:46;;;;;;;31.90;22.13;;;;;;;;;;5105157;28;20187;-79
2023/03/10 11:24:20;;;;;;;30.33;22.17;;;;;;;;;;5109327;28;20658;-79
2023/03/10 11:27:08;;;;;;;34.57;21.17;;;;;;;;;;5111307;28;20587;-79
2023/03/10 11:29:37;;;;;;;28.90;19.83;;;;;;;;;;5091871;28;20811;-79
2023/03/10 11:32:06;;;;;;;27.97;19.30;;;;;;;;;;5091378;28;20209;-79
2023/03/10 11:34:35;;;;;;;26.27;20.50;;;;;;;;;;5072020;28;20616;-78
2023/03/10 11:37:12;;;;;;;28.53;19.40;;;;;;;;;;5102104;28;20381;-79
2023/03/10 11:39:38;;;;;;;24.53;18.80;;;;;;;;;;5100525;28;20266;-79
2023/03/10 11:42:12;;;;;;;24.60;18.90;;;;;;;;;;5080389;28;20184;-79
2023/03/10 11:44:41;;;;;;;27.30;18.77;;;;;;;;;;5102277;28;20187;-79
2023/03/10 11:47:26;;;;;;;23.50;18.00;;;;;;;;;;5088707;28;20180;-79
2023/03/10 11:49:59;;;;;;;24.13;17.17;;;;;;;;;;5088880;28;20306;-79
2023/03/10 11:52:26;;;;;;;26.57;17.83;;;;;;;;;;5088972;28;20732;-79
2023/03/10 11:55:01;;;;;;;25.73;17.67;;;;;;;;;;5085408;28;20223;-79
2023/03/10 11:57:30;;;;;;;20.73;15.33;;;;;;;;;;5087879;28;20187;-78
2023/03/10 11:59:58;;;;;;;20.10;14.67;;;;;;;;;;5105839;28;20180;-78
2023/03/10 12:02:33;;;;;;;18.60;13.50;;;;;;;;;;5106240;28;20176;-78
2023/03/10 12:04:59;;;;;;;18.80;14.23;;;;;;;;;;5087989;28;20711;-78
2023/03/10 12:07:31;;;;;;;20.00;14.47;;;;;;;;;;5087243;28;20670;-78
2023/03/10 12:09:57;;;;;;;19.43;13.37;;;;;;;;;;5108216;28;20190;-78
2023/03/10 12:12:27;;;;;;;13.37;9.70;;;;;;;;;;5106107;28;20933;-78
2023/03/10 12:14:54;;;;;;;16.33;9.63;;;;;;;;;;5105313;28;20206;-79
2023/03/10 12:17:20;;;;;;;12.07;8.00;;;;;;;;;;5083041;28;20231;-79
2023/03/10 12:20:10;;;;;;;14.23;8.33;;;;;;;;;;5085951;28;20184;-78
2023/03/10 12:22:49;;;;;;;12.03;7.20;;;;;;;;;;5081799;28;20271;-78
2023/03/10 12:25:32;;;;;;;11.60;6.80;;;;;;;;;;5082668;28;20226;-78
2023/03/10 12:28:10;;;;;;;12.43;6.67;;;;;;;;;;5083953;28;20240;-78
2023/03/10 12:30:42;;;;;;;11.43;6.83;;;;;;;;;;5083479;28;20180;-79
2023/03/10 12:33:38;;;;;;;13.50;7.27;;;;;;;;;;5079345;28;20181;-78
2023/03/10 12:36:04;;;;;;;9.50;6.13;;;;;;;;;;5079576;28;20192;-78
2023/03/10 12:38:30;;;;;;;10.77;6.00;;;;;;;;;;5083521;28;20971;-78
2023/03/10 12:40:56;;;;;;;12.40;6.13;;;;;;;;;;5083213;28;20261;-78
2023/03/10 12:43:38;;;;;;;9.60;5.90;;;;;;;;;;5083112;28;20188;-79
2023/03/10 12:46:10;;;;;;;12.63;5.63;;;;;;;;;;5082533;28;20946;-80
2023/03/10 12:48:39;;;;;;;11.37;5.33;;;;;;;;;;5084664;28;20665;-79
2023/03/10 12:51:11;;;;;;;7.97;5.40;;;;;;;;;;5085492;28;20690;-80
2023/03/10 12:53:45;;;;;;;9.63;5.60;;;;;;;;;;5084422;28;20208;-79
2023/03/10 12:56:11;;;;;;;13.47;6.67;;;;;;;;;;5083748;28;20176;-79
2023/03/10 12:58:38;;;;;;;10.50;6.30;;;;;;;;;;5083753;28;20173;-79
2023/03/10 13:01:06;;;;;;;13.00;7.60;;;;;;;;;;5081423;28;20214;-79
2023/03/10 13:03:34;;;;;;;9.00;6.30;;;;;;;;;;5084213;28;20181;-79
2023/03/10 13:06:12;;;;;;;9.17;4.83;;;;;;;;;;5082783;28;20231;-79
2023/03/10 13:09:00;;;;;;;8.10;5.40;;;;;;;;;;5083326;28;20571;-79
2023/03/10 13:11:37;;;;;;;7.17;4.80;;;;;;;;;;5083778;28;20173;-80
2023/03/10 13:14:22;;;;;;;10.07;5.93;;;;;;;;;;5084333;28;20176;-79
2023/03/10 13:16:53;;;;;;;17.03;9.00;;;;;;;;;;5078988;28;20223;-79
2023/03/10 13:19:20;;;;;;;10.47;5.17;;;;;;;;;;5050316;28;20276;-80
2023/03/10 13:21:48;;;;;;;8.77;4.97;;;;;;;;;;5063863;28;20169;-79
2023/03/10 13:24:20;;;;;;;8.60;5.47;;;;;;;;;;5053564;28;20667;-79
2023/03/10 13:26:46;;;;;;;7.13;4.90;;;;;;;;;;5051437;28;20177;-80
2023/03/10 13:29:19;;;;;;;7.20;4.63;;;;;;;;;;5054596;28;20209;-79
2023/03/10 13:31:55;;;;;;;7.73;5.20;;;;;;;;;;5057681;28;20177;-79
2023/03/10 13:34:22;;;;;;;8.93;4.93;;;;;;;;;;5061279;28;20264;-80
2023/03/10 13:36:48;;;;;;;9.10;4.57;;;;;;;;;;5059711;28;20181;-79
2023/03/10 13:39:26;;;;;;;9.17;4.87;;;;;;;;;;5060876;28;20185;-80
2023/03/10 13:41:53;;;;;;;10.43;5.07;;;;;;;;;;5056166;28;20178;-79
2023/03/10 13:44:21;;;;;;;10.50;4.70;;;;;;;;;;5051601;28;20519;-79
2023/03/10 13:46:49;;;;;;;8.60;4.53;;;;;;;;;;5051410;28;20657;-80
2023/03/10 13:49:16;;;;;;;7.97;4.70;;;;;;;;;;5054857;28;20205;-80
2023/03/10 13:51:51;;;;;;;6.23;4.47;;;;;;;;;;5068187;28;20213;-80
2023/03/10 13:54:18;;;;;;;8.20;4.93;;;;;;;;;;5061366;28;20197;-80
2023/03/10 13:56:44;;;;;;;8.03;4.20;;;;;;;;;;5059201;28;20185;-80
2023/03/10 13:59:32;;;;;;;7.17;4.60;;;;;;;;;;5054793;28;20228;-80
2023/03/10 14:02:00;;;;;;;5.77;4.20;;;;;;;;;;5067930;28;20549;-79
2023/03/10 14:04:43;;;;;;;6.87;3.80;;;;;;;;;;5048887;28;20194;-80
2023/03/10 14:07:09;;;;;;;8.00;4.37;;;;;;;;;;5053906;28;20194;-79
2023/03/10 14:09:35;;;;;;;7.87;4.27;;;;;;;;;;5049005;28;20267;-80
2023/03/10 14:12:01;;;;;;;7.40;4.30;;;;;;;;;;5053673;28;20196;-80
2023/03/10 14:14:28;;;;;;;5.87;4.27;;;;;;;;;;5052857;28;20181;-80
2023/03/10 14:16:56;;;;;;;8.10;4.20;;;;;;;;;;5055425;28;20716;-80
2023/03/10 14:19:40;;;;;;;6.30;4.17;;;;;;;;;;5062249;28;20195;-79
2023/03/10 14:22:21;;;;;;;8.30;4.23;;;;;;;;;;5067725;28;20685;-80
2023/03/10 14:24:47;;;;;;;9.27;4.43;;;;;;;;;;5061686;28;20181;-79
2023/03/10 14:27:13;;;;;;;6.83;4.43;;;;;;;;;;5061899;28;20238;-80
2023/03/10 14:29:40;;;;;;;8.77;4.07;;;;;;;;;;5058058;28;20213;-80
2023/03/10 14:32:09;;;;;;;6.17;4.67;;;;;;;;;;5062968;28;20185;-80